sensor_id;sensor_type;location;lat;lon;timestamp;P1;durP1;ratioP1;P2;durP2;ratioP2
7971;SDS011;4031;49.758;6.120;2023-12-14T00:01:14;17.43;;;8.83;;
7971;SDS011;4031;49.758;6.120;2023-12-14T00:03:40;11.57;;;8.13;;
7971;SDS011;4031;49.758;6.120;2023-12-14T00:06:07;18.37;;;8.90;;
7971;SDS011;4031;49.758;6.120;2023-12-14T00:08:33;14.67;;;9.50;;
7971;SDS011;4031;49.758;6.120;2023-12-14T00:11:03;17.97;;;9.70;;
7971;SDS011;4031;49.758;6.120;2023-12-14T00:13:30;11.50;;;7.73;;
7971;SDS011;4031;49.758;6.120;2023-12-14T00:15:56;15.40;;;9.70;;
7971;SDS011;4031;49.758;6.120;2023-12-14T00:18:22;12.83;;;8.00;;
7971;SDS011;4031;49.758;6.120;2023-12-14T00:20:47;16.87;;;8.70;;
7971;SDS011;4031;49.758;6.120;2023-12-14T00:23:13;13.43;;;8.80;;
7971;SDS011;4031;49.758;6.120;2023-12-14T00:25:39;11.43;;;8.47;;
7971;SDS011;4031;49.758;6.120;2023-12-14T00:28:05;14.40;;;8.03;;
7971;SDS011;4031;49.758;6.120;2023-12-14T00:30:30;15.23;;;8.80;;
7971;SDS011;4031;49.758;6.120;2023-12-14T00:32:57;20.17;;;9.87;;
7971;SDS011;4031;49.758;6.120;2023-12-14T00:35:23;15.20;;;8.73;;
7971;SDS011;4031;49.758;6.120;2023-12-14T00:37:49;16.50;;;8.70;;
7971;SDS011;4031;49.758;6.120;2023-12-14T00:40:14;15.23;;;9.17;;
7971;SDS011;4031;49.758;6.120;2023-12-14T00:42:40;17.20;;;9.83;;
7971;SDS011;4031;49.758;6.120;2023-12-14T00:45:06;15.77;;;9.50;;
7971;SDS011;4031;49.758;6.120;2023-12-14T00:47:32;14.67;;;8.93;;
7971;SDS011;4031;49.758;6.120;2023-12-14T00:49:58;14.03;;;8.07;;
7971;SDS011;4031;49.758;6.120;2023-12-14T00:52:24;13.20;;;7.87;;
7971;SDS011;4031;49.758;6.120;2023-12-14T00:54:49;17.20;;;9.20;;
7971;SDS011;4031;49.758;6.120;2023-12-14T00:57:15;14.90;;;9.60;;
7971;SDS011;4031;49.758;6.120;2023-12-14T00:59:41;17.27;;;10.13;;
7971;SDS011;4031;49.758;6.120;2023-12-14T01:02:07;18.33;;;9.90;;
7971;SDS011;4031;49.758;6.120;2023-12-14T01:04:32;14.07;;;9.87;;
7971;SDS011;4031;49.758;6.120;2023-12-14T01:06:58;18.90;;;10.97;;
7971;SDS011;4031;49.758;6.120;2023-12-14T01:09:24;22.20;;;10.20;;
7971;SDS011;4031;49.758;6.120;2023-12-14T01:11:50;18.77;;;11.47;;
7971;SDS011;4031;49.758;6.120;2023-12-14T01:14:15;17.10;;;10.33;;
7971;SDS011;4031;49.758;6.120;2023-12-14T01:16:41;17.40;;;10.30;;
7971;SDS011;4031;49.758;6.120;2023-12-14T01:19:07;19.00;;;10.70;;
7971;SDS011;4031;49.758;6.120;2023-12-14T01:21:33;16.60;;;10.90;;
7971;SDS011;4031;49.758;6.120;2023-12-14T01:23:59;17.20;;;10.80;;
7971;SDS011;4031;49.758;6.120;2023-12-14T01:26:28;22.77;;;12.70;;
7971;SDS011;4031;49.758;6.120;2023-12-14T01:28:53;18.40;;;11.63;;
7971;SDS011;4031;49.758;6.120;2023-12-14T01:31:19;26.90;;;12.17;;
7971;SDS011;4031;49.758;6.120;2023-12-14T01:33:48;19.40;;;12.07;;
7971;SDS011;4031;49.758;6.120;2023-12-14T01:36:23;25.50;;;12.53;;
7971;SDS011;4031;49.758;6.120;2023-12-14T01:38:51;23.70;;;11.97;;
7971;SDS011;4031;49.758;6.120;2023-12-14T01:41:17;17.00;;;12.60;;
7971;SDS011;4031;49.758;6.120;2023-12-14T01:43:44;20.50;;;13.20;;
7971;SDS011;4031;49.758;6.120;2023-12-14T01:46:10;24.90;;;12.20;;
7971;SDS011;4031;49.758;6.120;2023-12-14T01:48:36;23.17;;;13.77;;
7971;SDS011;4031;49.758;6.120;2023-12-14T01:51:02;22.37;;;11.77;;
7971;SDS011;4031;49.758;6.120;2023-12-14T01:53:28;21.90;;;13.10;;
7971;SDS011;4031;49.758;6.120;2023-12-14T01:55:54;27.27;;;13.00;;
7971;SDS011;4031;49.758;6.120;2023-12-14T01:58:20;25.80;;;14.10;;
7971;SDS011;4031;49.758;6.120;2023-12-14T02:03:28;22.50;;;13.47;;
7971;SDS011;4031;49.758;6.120;2023-12-14T02:05:54;23.77;;;14.17;;
7971;SDS011;4031;49.758;6.120;2023-12-14T02:08:20;30.20;;;15.17;;
7971;SDS011;4031;49.758;6.120;2023-12-14T02:10:46;27.00;;;14.80;;
7971;SDS011;4031;49.758;6.120;2023-12-14T02:13:13;28.60;;;13.83;;
7971;SDS011;4031;49.758;6.120;2023-12-14T02:15:38;22.33;;;12.80;;
7971;SDS011;4031;49.758;6.120;2023-12-14T02:18:04;24.30;;;11.93;;
7971;SDS011;4031;49.758;6.120;2023-12-14T02:20:30;22.83;;;11.97;;
7971;SDS011;4031;49.758;6.120;2023-12-14T02:22:56;28.47;;;13.57;;
7971;SDS011;4031;49.758;6.120;2023-12-14T02:25:23;24.20;;;13.47;;
7971;SDS011;4031;49.758;6.120;2023-12-14T02:27:49;28.57;;;13.83;;
7971;SDS011;4031;49.758;6.120;2023-12-14T02:30:16;21.67;;;13.43;;
7971;SDS011;4031;49.758;6.120;2023-12-14T02:32:43;24.87;;;11.23;;
7971;SDS011;4031;49.758;6.120;2023-12-14T02:35:09;19.87;;;10.80;;
7971;SDS011;4031;49.758;6.120;2023-12-14T02:37:36;24.33;;;10.40;;
7971;SDS011;4031;49.758;6.120;2023-12-14T02:40:08;23.13;;;9.77;;
7971;SDS011;4031;49.758;6.120;2023-12-14T02:42:35;16.20;;;10.10;;
7971;SDS011;4031;49.758;6.120;2023-12-14T02:45:01;19.83;;;10.47;;
7971;SDS011;4031;49.758;6.120;2023-12-14T02:47:28;22.13;;;11.40;;
7971;SDS011;4031;49.758;6.120;2023-12-14T02:49:54;17.00;;;11.33;;
7971;SDS011;4031;49.758;6.120;2023-12-14T02:52:21;23.30;;;10.80;;
7971;SDS011;4031;49.758;6.120;2023-12-14T02:54:47;24.00;;;12.03;;
7971;SDS011;4031;49.758;6.120;2023-12-14T02:57:13;24.43;;;10.73;;
7971;SDS011;4031;49.758;6.120;2023-12-14T02:59:39;27.70;;;11.97;;
7971;SDS011;4031;49.758;6.120;2023-12-14T03:02:05;15.07;;;11.23;;
7971;SDS011;4031;49.758;6.120;2023-12-14T03:04:31;22.73;;;11.13;;
7971;SDS011;4031;49.758;6.120;2023-12-14T03:06:57;28.40;;;12.80;;
7971;SDS011;4031;49.758;6.120;2023-12-14T03:09:27;24.43;;;12.00;;
7971;SDS011;4031;49.758;6.120;2023-12-14T03:11:53;22.93;;;11.80;;
7971;SDS011;4031;49.758;6.120;2023-12-14T03:14:19;25.37;;;12.07;;
7971;SDS011;4031;49.758;6.120;2023-12-14T03:16:45;19.73;;;10.07;;
7971;SDS011;4031;49.758;6.120;2023-12-14T03:19:13;19.67;;;10.40;;
7971;SDS011;4031;49.758;6.120;2023-12-14T03:21:39;19.53;;;9.03;;
7971;SDS011;4031;49.758;6.120;2023-12-14T03:24:04;15.00;;;9.83;;
7971;SDS011;4031;49.758;6.120;2023-12-14T03:26:30;17.13;;;8.97;;
7971;SDS011;4031;49.758;6.120;2023-12-14T03:28:56;17.00;;;9.50;;
7971;SDS011;4031;49.758;6.120;2023-12-14T03:31:21;20.57;;;9.40;;
7971;SDS011;4031;49.758;6.120;2023-12-14T03:33:47;21.17;;;8.70;;
7971;SDS011;4031;49.758;6.120;2023-12-14T03:36:13;11.40;;;7.53;;
7971;SDS011;4031;49.758;6.120;2023-12-14T03:38:38;23.37;;;9.60;;
7971;SDS011;4031;49.758;6.120;2023-12-14T03:41:04;16.00;;;8.33;;
7971;SDS011;4031;49.758;6.120;2023-12-14T03:43:30;17.50;;;9.00;;
7971;SDS011;4031;49.758;6.120;2023-12-14T03:45:56;19.37;;;9.10;;
7971;SDS011;4031;49.758;6.120;2023-12-14T03:48:21;18.80;;;8.30;;
7971;SDS011;4031;49.758;6.120;2023-12-14T03:50:47;21.53;;;10.13;;
7971;SDS011;4031;49.758;6.120;2023-12-14T03:53:13;18.40;;;9.33;;
7971;SDS011;4031;49.758;6.120;2023-12-14T03:55:39;20.33;;;9.50;;
7971;SDS011;4031;49.758;6.120;2023-12-14T03:58:05;21.87;;;10.10;;
7971;SDS011;4031;49.758;6.120;2023-12-14T04:00:30;24.57;;;11.00;;
7971;SDS011;4031;49.758;6.120;2023-12-14T04:02:56;25.90;;;11.80;;
7971;SDS011;4031;49.758;6.120;2023-12-14T04:05:22;23.97;;;11.27;;
7971;SDS011;4031;49.758;6.120;2023-12-14T04:07:48;22.97;;;12.67;;
7971;SDS011;4031;49.758;6.120;2023-12-14T04:10:13;26.50;;;12.00;;
7971;SDS011;4031;49.758;6.120;2023-12-14T04:12:39;20.13;;;11.30;;
7971;SDS011;4031;49.758;6.120;2023-12-14T04:15:06;23.57;;;12.30;;
7971;SDS011;4031;49.758;6.120;2023-12-14T04:17:34;24.90;;;11.03;;
7971;SDS011;4031;49.758;6.120;2023-12-14T04:20:00;18.83;;;11.47;;
7971;SDS011;4031;49.758;6.120;2023-12-14T04:22:27;16.90;;;9.90;;
7971;SDS011;4031;49.758;6.120;2023-12-14T04:24:54;24.60;;;11.17;;
7971;SDS011;4031;49.758;6.120;2023-12-14T04:27:20;17.47;;;10.00;;
7971;SDS011;4031;49.758;6.120;2023-12-14T04:29:45;27.20;;;10.83;;
7971;SDS011;4031;49.758;6.120;2023-12-14T04:32:11;25.23;;;11.17;;
7971;SDS011;4031;49.758;6.120;2023-12-14T04:34:37;20.90;;;11.20;;
7971;SDS011;4031;49.758;6.120;2023-12-14T04:37:03;21.13;;;9.10;;
7971;SDS011;4031;49.758;6.120;2023-12-14T04:39:29;20.20;;;10.70;;
7971;SDS011;4031;49.758;6.120;2023-12-14T04:41:55;21.83;;;10.27;;
7971;SDS011;4031;49.758;6.120;2023-12-14T04:44:21;21.60;;;10.93;;
7971;SDS011;4031;49.758;6.120;2023-12-14T04:46:47;18.37;;;10.43;;
7971;SDS011;4031;49.758;6.120;2023-12-14T04:49:13;20.57;;;9.80;;
7971;SDS011;4031;49.758;6.120;2023-12-14T04:51:39;17.77;;;9.77;;
7971;SDS011;4031;49.758;6.120;2023-12-14T04:54:05;23.97;;;10.03;;
7971;SDS011;4031;49.758;6.120;2023-12-14T04:56:31;19.53;;;10.57;;
7971;SDS011;4031;49.758;6.120;2023-12-14T04:58:57;18.97;;;10.33;;
7971;SDS011;4031;49.758;6.120;2023-12-14T05:01:23;21.37;;;10.77;;
7971;SDS011;4031;49.758;6.120;2023-12-14T05:03:51;21.37;;;10.90;;
7971;SDS011;4031;49.758;6.120;2023-12-14T05:06:18;28.00;;;13.53;;
7971;SDS011;4031;49.758;6.120;2023-12-14T05:08:44;22.80;;;11.70;;
7971;SDS011;4031;49.758;6.120;2023-12-14T05:11:10;24.10;;;11.27;;
7971;SDS011;4031;49.758;6.120;2023-12-14T05:13:37;19.20;;;10.00;;
7971;SDS011;4031;49.758;6.120;2023-12-14T05:16:03;18.57;;;9.97;;
7971;SDS011;4031;49.758;6.120;2023-12-14T05:18:29;19.33;;;8.80;;
7971;SDS011;4031;49.758;6.120;2023-12-14T05:20:55;23.43;;;10.20;;
7971;SDS011;4031;49.758;6.120;2023-12-14T05:23:21;24.70;;;10.00;;
7971;SDS011;4031;49.758;6.120;2023-12-14T05:25:47;18.50;;;9.07;;
7971;SDS011;4031;49.758;6.120;2023-12-14T05:28:13;21.07;;;10.90;;
7971;SDS011;4031;49.758;6.120;2023-12-14T05:30:38;20.23;;;9.00;;
7971;SDS011;4031;49.758;6.120;2023-12-14T05:33:04;17.73;;;8.90;;
7971;SDS011;4031;49.758;6.120;2023-12-14T05:35:30;21.90;;;10.27;;
7971;SDS011;4031;49.758;6.120;2023-12-14T05:37:56;26.77;;;10.93;;
7971;SDS011;4031;49.758;6.120;2023-12-14T05:40:21;16.50;;;9.13;;
7971;SDS011;4031;49.758;6.120;2023-12-14T05:42:47;23.47;;;8.93;;
7971;SDS011;4031;49.758;6.120;2023-12-14T05:45:13;24.10;;;9.70;;
7971;SDS011;4031;49.758;6.120;2023-12-14T05:47:39;21.03;;;8.17;;
7971;SDS011;4031;49.758;6.120;2023-12-14T05:50:06;18.87;;;8.60;;
7971;SDS011;4031;49.758;6.120;2023-12-14T05:52:34;16.57;;;8.33;;
7971;SDS011;4031;49.758;6.120;2023-12-14T05:55:01;20.30;;;10.20;;
7971;SDS011;4031;49.758;6.120;2023-12-14T05:57:27;26.87;;;10.90;;
7971;SDS011;4031;49.758;6.120;2023-12-14T05:59:53;22.37;;;10.13;;
7971;SDS011;4031;49.758;6.120;2023-12-14T06:02:18;25.80;;;9.13;;
7971;SDS011;4031;49.758;6.120;2023-12-14T06:04:44;26.70;;;9.27;;
7971;SDS011;4031;49.758;6.120;2023-12-14T06:07:10;21.93;;;9.47;;
7971;SDS011;4031;49.758;6.120;2023-12-14T06:09:36;20.30;;;9.13;;
7971;SDS011;4031;49.758;6.120;2023-12-14T06:12:02;21.60;;;9.93;;
7971;SDS011;4031;49.758;6.120;2023-12-14T06:14:29;25.00;;;9.20;;
7971;SDS011;4031;49.758;6.120;2023-12-14T06:16:55;28.60;;;10.20;;
7971;SDS011;4031;49.758;6.120;2023-12-14T06:19:22;27.20;;;9.17;;
7971;SDS011;4031;49.758;6.120;2023-12-14T06:21:48;22.60;;;10.07;;
7971;SDS011;4031;49.758;6.120;2023-12-14T06:24:14;27.20;;;9.50;;
7971;SDS011;4031;49.758;6.120;2023-12-14T06:26:43;25.50;;;9.10;;
7971;SDS011;4031;49.758;6.120;2023-12-14T06:29:10;21.40;;;10.90;;
7971;SDS011;4031;49.758;6.120;2023-12-14T06:31:37;21.03;;;10.97;;
7971;SDS011;4031;49.758;6.120;2023-12-14T06:34:04;24.60;;;10.90;;
7971;SDS011;4031;49.758;6.120;2023-12-14T06:36:30;17.53;;;9.20;;
7971;SDS011;4031;49.758;6.120;2023-12-14T06:39:00;29.40;;;10.83;;
7971;SDS011;4031;49.758;6.120;2023-12-14T06:41:26;24.50;;;10.80;;
7971;SDS011;4031;49.758;6.120;2023-12-14T06:43:53;24.60;;;9.80;;
7971;SDS011;4031;49.758;6.120;2023-12-14T06:46:20;21.90;;;8.90;;
7971;SDS011;4031;49.758;6.120;2023-12-14T06:48:46;28.53;;;9.20;;
7971;SDS011;4031;49.758;6.120;2023-12-14T06:51:13;19.53;;;10.30;;
7971;SDS011;4031;49.758;6.120;2023-12-14T06:53:42;28.20;;;10.20;;
7971;SDS011;4031;49.758;6.120;2023-12-14T06:56:09;25.67;;;9.40;;
7971;SDS011;4031;49.758;6.120;2023-12-14T06:58:42;23.67;;;10.40;;
7971;SDS011;4031;49.758;6.120;2023-12-14T07:01:15;24.37;;;9.20;;
7971;SDS011;4031;49.758;6.120;2023-12-14T07:03:43;33.83;;;12.53;;
7971;SDS011;4031;49.758;6.120;2023-12-14T07:06:15;26.43;;;10.50;;
7971;SDS011;4031;49.758;6.120;2023-12-14T07:08:43;24.63;;;10.10;;
7971;SDS011;4031;49.758;6.120;2023-12-14T07:11:09;26.97;;;12.07;;
7971;SDS011;4031;49.758;6.120;2023-12-14T07:13:36;29.23;;;10.57;;
7971;SDS011;4031;49.758;6.120;2023-12-14T07:16:04;29.17;;;12.13;;
7971;SDS011;4031;49.758;6.120;2023-12-14T07:18:35;30.63;;;13.17;;
7971;SDS011;4031;49.758;6.120;2023-12-14T07:21:05;25.50;;;11.00;;
7971;SDS011;4031;49.758;6.120;2023-12-14T07:23:31;23.73;;;11.20;;
7971;SDS011;4031;49.758;6.120;2023-12-14T07:25:58;26.07;;;12.30;;
7971;SDS011;4031;49.758;6.120;2023-12-14T07:28:24;26.40;;;12.60;;
7971;SDS011;4031;49.758;6.120;2023-12-14T07:30:50;23.60;;;11.13;;
7971;SDS011;4031;49.758;6.120;2023-12-14T07:33:16;26.00;;;10.53;;
7971;SDS011;4031;49.758;6.120;2023-12-14T07:35:42;24.10;;;9.63;;
7971;SDS011;4031;49.758;6.120;2023-12-14T07:38:09;30.90;;;9.93;;
7971;SDS011;4031;49.758;6.120;2023-12-14T07:40:35;22.13;;;10.37;;
7971;SDS011;4031;49.758;6.120;2023-12-14T07:43:01;27.20;;;11.60;;
7971;SDS011;4031;49.758;6.120;2023-12-14T07:45:27;22.20;;;10.87;;
7971;SDS011;4031;49.758;6.120;2023-12-14T07:47:53;26.60;;;9.60;;
7971;SDS011;4031;49.758;6.120;2023-12-14T07:50:18;24.20;;;10.90;;
7971;SDS011;4031;49.758;6.120;2023-12-14T07:52:44;31.33;;;10.47;;
7971;SDS011;4031;49.758;6.120;2023-12-14T07:55:10;20.90;;;10.77;;
7971;SDS011;4031;49.758;6.120;2023-12-14T07:57:38;22.83;;;10.70;;
7971;SDS011;4031;49.758;6.120;2023-12-14T08:00:04;25.00;;;9.73;;
7971;SDS011;4031;49.758;6.120;2023-12-14T08:02:33;32.07;;;11.63;;
7971;SDS011;4031;49.758;6.120;2023-12-14T08:04:59;28.00;;;10.83;;
7971;SDS011;4031;49.758;6.120;2023-12-14T08:07:25;31.03;;;10.93;;
7971;SDS011;4031;49.758;6.120;2023-12-14T08:09:54;25.30;;;10.57;;
7971;SDS011;4031;49.758;6.120;2023-12-14T08:12:20;27.13;;;10.80;;
7971;SDS011;4031;49.758;6.120;2023-12-14T08:14:47;32.20;;;12.93;;
7971;SDS011;4031;49.758;6.120;2023-12-14T08:17:13;36.37;;;12.47;;
7971;SDS011;4031;49.758;6.120;2023-12-14T08:19:38;20.10;;;11.63;;
7971;SDS011;4031;49.758;6.120;2023-12-14T08:22:04;36.87;;;13.73;;
7971;SDS011;4031;49.758;6.120;2023-12-14T08:24:30;25.57;;;12.50;;
7971;SDS011;4031;49.758;6.120;2023-12-14T08:26:56;33.50;;;12.43;;
7971;SDS011;4031;49.758;6.120;2023-12-14T08:29:22;33.20;;;12.17;;
7971;SDS011;4031;49.758;6.120;2023-12-14T08:31:48;28.93;;;12.30;;
7971;SDS011;4031;49.758;6.120;2023-12-14T08:34:13;27.10;;;12.57;;
7971;SDS011;4031;49.758;6.120;2023-12-14T08:36:39;29.03;;;10.30;;
7971;SDS011;4031;49.758;6.120;2023-12-14T08:39:05;36.77;;;13.67;;
7971;SDS011;4031;49.758;6.120;2023-12-14T08:41:31;33.63;;;13.00;;
7971;SDS011;4031;49.758;6.120;2023-12-14T08:43:57;26.27;;;11.93;;
7971;SDS011;4031;49.758;6.120;2023-12-14T08:46:23;33.07;;;11.70;;
7971;SDS011;4031;49.758;6.120;2023-12-14T08:48:48;27.50;;;11.00;;
7971;SDS011;4031;49.758;6.120;2023-12-14T08:51:14;29.10;;;10.80;;
7971;SDS011;4031;49.758;6.120;2023-12-14T08:53:40;30.00;;;12.10;;
7971;SDS011;4031;49.758;6.120;2023-12-14T08:56:06;28.83;;;11.17;;
7971;SDS011;4031;49.758;6.120;2023-12-14T08:58:33;31.60;;;11.77;;
7971;SDS011;4031;49.758;6.120;2023-12-14T09:00:59;27.07;;;11.70;;
7971;SDS011;4031;49.758;6.120;2023-12-14T09:03:25;34.50;;;12.90;;
7971;SDS011;4031;49.758;6.120;2023-12-14T09:05:51;40.60;;;13.40;;
7971;SDS011;4031;49.758;6.120;2023-12-14T09:08:17;29.23;;;13.33;;
7971;SDS011;4031;49.758;6.120;2023-12-14T09:10:44;26.57;;;12.07;;
7971;SDS011;4031;49.758;6.120;2023-12-14T09:13:10;33.33;;;11.27;;
7971;SDS011;4031;49.758;6.120;2023-12-14T09:15:35;32.70;;;11.23;;
7971;SDS011;4031;49.758;6.120;2023-12-14T09:18:01;28.13;;;10.53;;
7971;SDS011;4031;49.758;6.120;2023-12-14T09:20:27;25.20;;;9.90;;
7971;SDS011;4031;49.758;6.120;2023-12-14T09:22:53;19.57;;;10.37;;
7971;SDS011;4031;49.758;6.120;2023-12-14T09:25:19;23.70;;;10.70;;
7971;SDS011;4031;49.758;6.120;2023-12-14T09:27:45;31.00;;;10.93;;
7971;SDS011;4031;49.758;6.120;2023-12-14T09:30:11;36.87;;;14.60;;
7971;SDS011;4031;49.758;6.120;2023-12-14T09:32:38;29.27;;;14.13;;
7971;SDS011;4031;49.758;6.120;2023-12-14T09:35:05;27.50;;;11.83;;
7971;SDS011;4031;49.758;6.120;2023-12-14T09:37:31;27.40;;;10.93;;
7971;SDS011;4031;49.758;6.120;2023-12-14T09:39:57;20.40;;;8.80;;
7971;SDS011;4031;49.758;6.120;2023-12-14T09:42:23;21.17;;;7.70;;
7971;SDS011;4031;49.758;6.120;2023-12-14T09:44:49;16.87;;;8.17;;
7971;SDS011;4031;49.758;6.120;2023-12-14T09:47:16;14.90;;;5.97;;
7971;SDS011;4031;49.758;6.120;2023-12-14T09:49:42;14.33;;;5.20;;
7971;SDS011;4031;49.758;6.120;2023-12-14T09:52:09;10.40;;;5.47;;
7971;SDS011;4031;49.758;6.120;2023-12-14T09:54:35;14.23;;;5.50;;
7971;SDS011;4031;49.758;6.120;2023-12-14T09:57:01;11.60;;;4.17;;
7971;SDS011;4031;49.758;6.120;2023-12-14T09:59:26;8.70;;;4.17;;
7971;SDS011;4031;49.758;6.120;2023-12-14T10:01:52;11.13;;;5.50;;
7971;SDS011;4031;49.758;6.120;2023-12-14T10:04:18;10.90;;;4.60;;
7971;SDS011;4031;49.758;6.120;2023-12-14T10:06:45;10.73;;;4.20;;
7971;SDS011;4031;49.758;6.120;2023-12-14T10:09:12;7.97;;;4.03;;
7971;SDS011;4031;49.758;6.120;2023-12-14T10:11:40;10.40;;;4.50;;
7971;SDS011;4031;49.758;6.120;2023-12-14T10:14:18;7.63;;;3.40;;
7971;SDS011;4031;49.758;6.120;2023-12-14T10:16:48;5.00;;;3.10;;
7971;SDS011;4031;49.758;6.120;2023-12-14T10:19:14;9.33;;;4.30;;
7971;SDS011;4031;49.758;6.120;2023-12-14T10:21:43;4.83;;;3.37;;
7971;SDS011;4031;49.758;6.120;2023-12-14T10:24:13;7.93;;;3.60;;
7971;SDS011;4031;49.758;6.120;2023-12-14T10:26:39;8.40;;;3.97;;
7971;SDS011;4031;49.758;6.120;2023-12-14T10:29:06;10.27;;;4.30;;
7971;SDS011;4031;49.758;6.120;2023-12-14T10:31:32;6.40;;;3.47;;
7971;SDS011;4031;49.758;6.120;2023-12-14T10:34:02;6.83;;;3.83;;
7971;SDS011;4031;49.758;6.120;2023-12-14T10:36:32;9.37;;;4.97;;
7971;SDS011;4031;49.758;6.120;2023-12-14T10:38:58;10.97;;;4.73;;
7971;SDS011;4031;49.758;6.120;2023-12-14T10:41:25;6.13;;;2.90;;
7971;SDS011;4031;49.758;6.120;2023-12-14T10:43:55;12.30;;;6.57;;
7971;SDS011;4031;49.758;6.120;2023-12-14T10:46:23;12.90;;;6.13;;
7971;SDS011;4031;49.758;6.120;2023-12-14T10:48:49;9.40;;;4.73;;
7971;SDS011;4031;49.758;6.120;2023-12-14T10:51:20;5.53;;;2.90;;
7971;SDS011;4031;49.758;6.120;2023-12-14T10:53:47;7.37;;;3.70;;
7971;SDS011;4031;49.758;6.120;2023-12-14T10:56:14;5.90;;;3.40;;
7971;SDS011;4031;49.758;6.120;2023-12-14T10:58:45;8.03;;;4.90;;
7971;SDS011;4031;49.758;6.120;2023-12-14T11:01:20;10.60;;;4.83;;
7971;SDS011;4031;49.758;6.120;2023-12-14T11:03:54;4.70;;;3.37;;
7971;SDS011;4031;49.758;6.120;2023-12-14T11:08:56;8.00;;;5.33;;
7971;SDS011;4031;49.758;6.120;2023-12-14T11:11:31;8.23;;;5.27;;
7971;SDS011;4031;49.758;6.120;2023-12-14T11:14:22;11.47;;;6.20;;
7971;SDS011;4031;49.758;6.120;2023-12-14T11:16:50;7.63;;;5.67;;
7971;SDS011;4031;49.758;6.120;2023-12-14T11:19:28;7.27;;;4.33;;
7971;SDS011;4031;49.758;6.120;2023-12-14T11:24:29;7.87;;;5.20;;
7971;SDS011;4031;49.758;6.120;2023-12-14T11:26:55;8.30;;;5.30;;
7971;SDS011;4031;49.758;6.120;2023-12-14T11:29:20;8.37;;;5.60;;
7971;SDS011;4031;49.758;6.120;2023-12-14T11:31:47;8.37;;;5.30;;
7971;SDS011;4031;49.758;6.120;2023-12-14T11:34:16;14.13;;;10.93;;
7971;SDS011;4031;49.758;6.120;2023-12-14T11:36:42;9.80;;;6.03;;
7971;SDS011;4031;49.758;6.120;2023-12-14T11:39:11;7.47;;;5.63;;
7971;SDS011;4031;49.758;6.120;2023-12-14T11:41:37;6.00;;;4.03;;
7971;SDS011;4031;49.758;6.120;2023-12-14T11:44:03;9.83;;;6.00;;
7971;SDS011;4031;49.758;6.120;2023-12-14T11:46:29;8.13;;;4.80;;
7971;SDS011;4031;49.758;6.120;2023-12-14T11:48:57;6.57;;;4.13;;
7971;SDS011;4031;49.758;6.120;2023-12-14T11:51:23;6.43;;;3.73;;
7971;SDS011;4031;49.758;6.120;2023-12-14T11:53:54;7.10;;;5.20;;
7971;SDS011;4031;49.758;6.120;2023-12-14T11:56:20;5.13;;;4.33;;
7971;SDS011;4031;49.758;6.120;2023-12-14T11:58:48;5.20;;;4.03;;
7971;SDS011;4031;49.758;6.120;2023-12-14T12:01:15;4.17;;;3.77;;
7971;SDS011;4031;49.758;6.120;2023-12-14T12:03:46;7.47;;;3.40;;
7971;SDS011;4031;49.758;6.120;2023-12-14T12:08:50;3.77;;;2.67;;
7971;SDS011;4031;49.758;6.120;2023-12-14T12:11:20;5.70;;;3.53;;
7971;SDS011;4031;49.758;6.120;2023-12-14T12:13:52;7.23;;;3.60;;
7971;SDS011;4031;49.758;6.120;2023-12-14T12:16:22;5.43;;;3.60;;
7971;SDS011;4031;49.758;6.120;2023-12-14T12:18:48;5.07;;;3.40;;
7971;SDS011;4031;49.758;6.120;2023-12-14T12:21:17;6.23;;;3.60;;
7971;SDS011;4031;49.758;6.120;2023-12-14T12:23:43;5.43;;;3.93;;
7971;SDS011;4031;49.758;6.120;2023-12-14T12:26:09;6.30;;;3.67;;
7971;SDS011;4031;49.758;6.120;2023-12-14T12:28:35;6.67;;;3.57;;
7971;SDS011;4031;49.758;6.120;2023-12-14T12:31:00;3.70;;;2.73;;
7971;SDS011;4031;49.758;6.120;2023-12-14T12:33:26;6.43;;;3.33;;
7971;SDS011;4031;49.758;6.120;2023-12-14T12:35:52;4.53;;;3.00;;
7971;SDS011;4031;49.758;6.120;2023-12-14T12:38:19;4.57;;;3.53;;
7971;SDS011;4031;49.758;6.120;2023-12-14T12:40:45;4.60;;;3.43;;
7971;SDS011;4031;49.758;6.120;2023-12-14T12:43:11;4.17;;;3.00;;
7971;SDS011;4031;49.758;6.120;2023-12-14T12:45:39;3.83;;;2.90;;
7971;SDS011;4031;49.758;6.120;2023-12-14T12:48:05;3.67;;;3.00;;
7971;SDS011;4031;49.758;6.120;2023-12-14T12:50:32;4.20;;;2.27;;
7971;SDS011;4031;49.758;6.120;2023-12-14T12:52:58;2.33;;;2.00;;
7971;SDS011;4031;49.758;6.120;2023-12-14T12:55:24;4.70;;;2.90;;
7971;SDS011;4031;49.758;6.120;2023-12-14T12:57:49;5.03;;;2.40;;
7971;SDS011;4031;49.758;6.120;2023-12-14T13:00:15;3.43;;;2.47;;
7971;SDS011;4031;49.758;6.120;2023-12-14T13:02:42;2.63;;;1.60;;
7971;SDS011;4031;49.758;6.120;2023-12-14T13:05:12;3.43;;;2.40;;
7971;SDS011;4031;49.758;6.120;2023-12-14T13:07:38;4.13;;;3.00;;
7971;SDS011;4031;49.758;6.120;2023-12-14T13:10:04;4.50;;;3.00;;
7971;SDS011;4031;49.758;6.120;2023-12-14T13:12:31;5.80;;;3.57;;
7971;SDS011;4031;49.758;6.120;2023-12-14T13:14:58;4.77;;;3.83;;
7971;SDS011;4031;49.758;6.120;2023-12-14T13:17:25;5.67;;;3.40;;
7971;SDS011;4031;49.758;6.120;2023-12-14T13:19:51;6.10;;;3.43;;
7971;SDS011;4031;49.758;6.120;2023-12-14T13:22:17;4.13;;;2.93;;
7971;SDS011;4031;49.758;6.120;2023-12-14T13:24:43;5.00;;;3.40;;
7971;SDS011;4031;49.758;6.120;2023-12-14T13:27:10;3.47;;;3.13;;
7971;SDS011;4031;49.758;6.120;2023-12-14T13:29:35;6.50;;;3.83;;
7971;SDS011;4031;49.758;6.120;2023-12-14T13:32:01;4.23;;;3.33;;
7971;SDS011;4031;49.758;6.120;2023-12-14T13:34:27;6.20;;;4.20;;
7971;SDS011;4031;49.758;6.120;2023-12-14T13:36:56;5.00;;;3.37;;
7971;SDS011;4031;49.758;6.120;2023-12-14T13:39:25;3.73;;;3.13;;
7971;SDS011;4031;49.758;6.120;2023-12-14T13:41:52;8.57;;;4.40;;
7971;SDS011;4031;49.758;6.120;2023-12-14T13:44:17;4.40;;;3.27;;
7971;SDS011;4031;49.758;6.120;2023-12-14T13:46:43;7.57;;;4.10;;
7971;SDS011;4031;49.758;6.120;2023-12-14T13:49:09;6.83;;;4.07;;
7971;SDS011;4031;49.758;6.120;2023-12-14T13:51:35;9.10;;;4.47;;
7971;SDS011;4031;49.758;6.120;2023-12-14T13:54:00;10.90;;;4.90;;
7971;SDS011;4031;49.758;6.120;2023-12-14T13:56:26;5.20;;;3.30;;
7971;SDS011;4031;49.758;6.120;2023-12-14T13:58:52;4.67;;;4.13;;
7971;SDS011;4031;49.758;6.120;2023-12-14T14:01:18;8.60;;;5.40;;
7971;SDS011;4031;49.758;6.120;2023-12-14T14:03:44;7.33;;;4.30;;
7971;SDS011;4031;49.758;6.120;2023-12-14T14:06:11;6.73;;;3.67;;
7971;SDS011;4031;49.758;6.120;2023-12-14T14:08:38;8.33;;;4.47;;
7971;SDS011;4031;49.758;6.120;2023-12-14T14:11:04;8.33;;;4.93;;
7971;SDS011;4031;49.758;6.120;2023-12-14T14:13:30;5.73;;;4.30;;
7971;SDS011;4031;49.758;6.120;2023-12-14T14:15:57;5.87;;;5.10;;
7971;SDS011;4031;49.758;6.120;2023-12-14T14:18:23;9.10;;;3.60;;
7971;SDS011;4031;49.758;6.120;2023-12-14T14:20:49;8.67;;;4.20;;
7971;SDS011;4031;49.758;6.120;2023-12-14T14:23:15;9.10;;;4.30;;
7971;SDS011;4031;49.758;6.120;2023-12-14T14:25:41;7.80;;;4.67;;
7971;SDS011;4031;49.758;6.120;2023-12-14T14:28:06;8.30;;;4.53;;
7971;SDS011;4031;49.758;6.120;2023-12-14T14:30:32;6.70;;;3.97;;
7971;SDS011;4031;49.758;6.120;2023-12-14T14:32:58;7.67;;;4.03;;
7971;SDS011;4031;49.758;6.120;2023-12-14T14:35:24;5.90;;;3.97;;
7971;SDS011;4031;49.758;6.120;2023-12-14T14:37:50;6.20;;;4.23;;
7971;SDS011;4031;49.758;6.120;2023-12-14T14:40:15;7.73;;;4.33;;
7971;SDS011;4031;49.758;6.120;2023-12-14T14:42:41;6.83;;;4.30;;
7971;SDS011;4031;49.758;6.120;2023-12-14T14:45:09;5.17;;;3.50;;
7971;SDS011;4031;49.758;6.120;2023-12-14T14:47:36;9.80;;;5.60;;
7971;SDS011;4031;49.758;6.120;2023-12-14T14:50:02;7.33;;;4.83;;
7971;SDS011;4031;49.758;6.120;2023-12-14T14:52:30;8.57;;;4.60;;
7971;SDS011;4031;49.758;6.120;2023-12-14T14:54:56;8.07;;;4.40;;
7971;SDS011;4031;49.758;6.120;2023-12-14T14:57:22;7.23;;;4.67;;
7971;SDS011;4031;49.758;6.120;2023-12-14T14:59:48;6.47;;;4.23;;
7971;SDS011;4031;49.758;6.120;2023-12-14T15:02:13;6.87;;;4.20;;
7971;SDS011;4031;49.758;6.120;2023-12-14T15:04:39;7.17;;;4.03;;
7971;SDS011;4031;49.758;6.120;2023-12-14T15:07:05;6.67;;;4.37;;